Terminal Aerodrome Forecast
Issued by NWS

Current Version | Previous Version | Text Only | Print | Product List | Glossary On
Versions: 1 2 3 4 5 6 7 8 9 10 11 12 13 14
000
FTUS46 KOTX 152331
TAFPUW
TAF
KPUW 152331Z 1600/1624 24021G26KT P6SM VCSH FEW070 SCT080 BKN100
     FM160200 25012G16KT P6SM SCT080 SCT150
     FM161000 24006KT P6SM BKN070 OVC120
     FM161500 21008KT P6SM VCSH BKN050 OVC070
     FM161800 22010KT P6SM -SHRA BKN040 OVC060=

USA.gov is the U.S. government's official web portal to all federal, state and local government web resources and services.